This demonstration page uses our WeatherBlox Daily Observations layout. Learn more.

Left ArrowRight Arrow

Hourly Observations for May 24, 2020

Temp ( °F °C ) Dew Point ( °F °C ) Humidity (%) Winds ( mph kmh ) Pressure ( in mb ) Visibility ( mi km ) Precip ( " mm )
12:56 am 00:56 Clear 69 20.6 65 18.3 87 87 SSE 17 28 29.65 1004 10 16 0.00 0.00
1:56 am 01:56 Clear 69 20.6 64 17.8 84 84 NW 17 28 29.73 1007 10 16 0.00 0.00
2:12 am 02:12 Mostly Cloudy 64 18 55 13 73 73 NNW 33 54 29.72 1007 10 16 0.00 0.00
2:26 am 02:26 Cloudy with Nearby Thunderstorms N/A N/A N/A N 23 37 N/A 10 16 0.00 0.00
2:56 am 02:56 Cloudy with Nearby Thunderstorms N/A N/A N/A NNE 14 22 N/A 10 16 0.00 0.00
3:13 am 03:13 Cloudy with Light Rain N/A N/A N/A NNE 13 20 N/A 10 16 0.01 0.25
3:56 am 03:56 Mostly Cloudy N/A N/A N/A NE 6 9 N/A 10 16 0.01 0.25
4:56 am 04:56 Clear N/A N/A N/A N 7 11 N/A 10 16 0.00 0.00
5:56 am 05:56 Partly Cloudy N/A N/A N/A NNE 5 7 N/A 10 16 0.00 0.00
6:56 am 06:56 Cloudy N/A N/A N/A E 3 6 N/A 10 16 0.00 0.00
7:56 am 07:56 Cloudy N/A N/A N/A NNE 5 7 N/A 10 16 0.00 0.00
8:50 am 08:50 Mostly Cloudy N/A N/A N/A N 14 22 N/A 10 16 0.00 0.00
8:56 am 08:56 Mostly Cloudy N/A N/A N/A N 15 24 N/A 10 16 0.00 0.00
9:22 am 09:22 Cloudy N/A N/A N/A N 15 24 N/A 10 16 0.00 0.00
9:56 am 09:56 Cloudy N/A N/A N/A N 16 26 N/A 10 16 0.00 0.00
10:56 am 10:56 Cloudy N/A N/A N/A N 17 28 N/A 10 16 0.00 0.00
11:25 am 11:25 Cloudy N/A N/A N/A NNE 16 26 N/A 10 16 0.00 0.00
11:56 am 11:56 Cloudy N/A N/A N/A NNE 16 26 N/A 10 16 0.00 0.00
12:56 pm 12:56 Cloudy N/A N/A N/A NNE 15 24 N/A 10 16 0.00 0.00
1:44 pm 13:44 Mostly Cloudy N/A N/A N/A NNE 15 24 N/A 10 16 0.00 0.00
1:56 pm 13:56 Mostly Cloudy N/A N/A N/A NNE 15 24 N/A 10 16 0.00 0.00
2:30 pm 14:30 Partly Cloudy N/A N/A N/A NNE 17 28 N/A 10 16 0.00 0.00
2:56 pm 14:56 Mostly Sunny N/A N/A N/A NE 15 24 N/A 10 16 0.00 0.00
3:56 pm 15:56 Cloudy N/A N/A N/A ENE 12 19 N/A 10 16 0.00 0.00
4:56 pm 16:56 Mostly Cloudy N/A N/A N/A NNE 13 20 N/A 10 16 0.00 0.00
5:56 pm 17:56 Cloudy N/A N/A N/A ENE 9 15 N/A 10 16 0.00 0.00
6:56 pm 18:56 Cloudy N/A N/A N/A NNE 14 22 N/A 10 16 0.00 0.00
7:28 pm 19:28 Cloudy N/A N/A N/A NE 14 22 N/A 10 16 0.00 0.00
7:56 pm 19:56 Cloudy N/A N/A N/A NNE 15 24 N/A 10 16 0.00 0.00
8:56 pm 20:56 Mostly Cloudy N/A N/A N/A NNE 13 20 N/A 10 16 0.00 0.00
9:45 pm 21:45 Cloudy N/A N/A N/A NNE 13 20 N/A 10 16 0.00 0.00
9:52 pm 21:52 Cloudy with Nearby Thunderstorms N/A N/A N/A NNE 15 24 N/A 10 16 0.00 0.00
9:56 pm 21:56 Cloudy with Nearby Thunderstorms N/A N/A N/A NNE 14 22 N/A 10 16 0.00 0.00
10:07 pm 22:07 Cloudy with Light Rain N/A N/A N/A NNE 18 30 N/A 10 16 0.00 0.00
10:56 pm 22:56 Cloudy N/A N/A N/A N 17 28 N/A 10 16 0.00 0.00
11:20 pm 23:20 Cloudy with Nearby Thunderstorms N/A N/A N/A N 21 33 N/A 10 16 0.00 0.00
11:56 pm 23:56 Cloudy with Strong Thunderstorms N/A N/A N/A N 16 26 N/A 8 13 0.10 2.54

Powered by AerisWeather